sensor_id;sensor_type;location;lat;lon;timestamp;P1;durP1;ratioP1;P2;durP2;ratioP2
65393;SDS011;52002;49.760;6.512;2023-08-08T00:00:15;0.60;;;0.60;;
65393;SDS011;52002;49.760;6.512;2023-08-08T00:02:40;4.70;;;0.90;;
65393;SDS011;52002;49.760;6.512;2023-08-08T00:05:05;1.00;;;0.60;;
65393;SDS011;52002;49.760;6.512;2023-08-08T00:07:31;3.90;;;0.90;;
65393;SDS011;52002;49.760;6.512;2023-08-08T00:09:56;2.10;;;0.90;;
65393;SDS011;52002;49.760;6.512;2023-08-08T00:12:22;6.90;;;1.00;;
65393;SDS011;52002;49.760;6.512;2023-08-08T00:14:48;2.50;;;0.70;;
65393;SDS011;52002;49.760;6.512;2023-08-08T00:17:14;1.00;;;0.70;;
65393;SDS011;52002;49.760;6.512;2023-08-08T00:19:39;2.50;;;0.90;;
65393;SDS011;52002;49.760;6.512;2023-08-08T00:22:05;5.50;;;0.80;;
65393;SDS011;52002;49.760;6.512;2023-08-08T00:24:30;4.10;;;0.90;;
65393;SDS011;52002;49.760;6.512;2023-08-08T00:26:56;5.50;;;1.10;;
65393;SDS011;52002;49.760;6.512;2023-08-08T00:29:21;2.40;;;0.60;;
65393;SDS011;52002;49.760;6.512;2023-08-08T00:31:47;2.30;;;0.70;;
65393;SDS011;52002;49.760;6.512;2023-08-08T00:34:12;2.30;;;1.00;;
65393;SDS011;52002;49.760;6.512;2023-08-08T00:36:37;4.60;;;0.90;;
65393;SDS011;52002;49.760;6.512;2023-08-08T00:39:03;5.50;;;1.20;;
65393;SDS011;52002;49.760;6.512;2023-08-08T00:41:28;1.20;;;0.70;;
65393;SDS011;52002;49.760;6.512;2023-08-08T00:43:53;4.50;;;1.10;;
65393;SDS011;52002;49.760;6.512;2023-08-08T00:46:20;1.80;;;0.70;;
65393;SDS011;52002;49.760;6.512;2023-08-08T00:48:47;4.00;;;0.60;;
65393;SDS011;52002;49.760;6.512;2023-08-08T00:51:12;1.20;;;0.70;;
65393;SDS011;52002;49.760;6.512;2023-08-08T00:53:38;1.30;;;0.70;;
65393;SDS011;52002;49.760;6.512;2023-08-08T00:56:04;0.50;;;0.50;;
65393;SDS011;52002;49.760;6.512;2023-08-08T00:58:30;1.30;;;0.80;;
65393;SDS011;52002;49.760;6.512;2023-08-08T01:00:55;2.70;;;0.50;;
65393;SDS011;52002;49.760;6.512;2023-08-08T01:03:24;2.70;;;0.90;;
65393;SDS011;52002;49.760;6.512;2023-08-08T01:05:53;0.70;;;0.70;;
65393;SDS011;52002;49.760;6.512;2023-08-08T01:08:27;3.40;;;0.90;;
65393;SDS011;52002;49.760;6.512;2023-08-08T01:11:00;1.70;;;0.60;;
65393;SDS011;52002;49.760;6.512;2023-08-08T01:13:27;3.60;;;0.90;;
65393;SDS011;52002;49.760;6.512;2023-08-08T01:15:55;3.20;;;0.80;;
65393;SDS011;52002;49.760;6.512;2023-08-08T01:18:22;0.70;;;0.70;;
65393;SDS011;52002;49.760;6.512;2023-08-08T01:20:48;3.00;;;0.70;;
65393;SDS011;52002;49.760;6.512;2023-08-08T01:23:19;8.20;;;0.80;;
65393;SDS011;52002;49.760;6.512;2023-08-08T01:25:52;2.30;;;0.90;;
65393;SDS011;52002;49.760;6.512;2023-08-08T01:28:21;2.70;;;1.00;;
65393;SDS011;52002;49.760;6.512;2023-08-08T01:30:47;2.30;;;0.70;;
65393;SDS011;52002;49.760;6.512;2023-08-08T01:33:13;8.80;;;0.70;;
65393;SDS011;52002;49.760;6.512;2023-08-08T01:35:39;2.10;;;0.80;;
65393;SDS011;52002;49.760;6.512;2023-08-08T01:40:50;1.40;;;0.90;;
65393;SDS011;52002;49.760;6.512;2023-08-08T01:43:15;4.30;;;0.90;;
65393;SDS011;52002;49.760;6.512;2023-08-08T01:45:43;0.70;;;0.70;;
65393;SDS011;52002;49.760;6.512;2023-08-08T01:48:10;5.90;;;0.60;;
65393;SDS011;52002;49.760;6.512;2023-08-08T01:50:36;0.60;;;0.60;;
65393;SDS011;52002;49.760;6.512;2023-08-08T01:53:03;3.50;;;0.60;;
65393;SDS011;52002;49.760;6.512;2023-08-08T01:55:28;3.10;;;0.90;;
65393;SDS011;52002;49.760;6.512;2023-08-08T01:57:54;4.00;;;0.80;;
65393;SDS011;52002;49.760;6.512;2023-08-08T02:00:19;0.50;;;0.50;;
65393;SDS011;52002;49.760;6.512;2023-08-08T02:02:45;1.50;;;0.50;;
65393;SDS011;52002;49.760;6.512;2023-08-08T02:05:10;3.50;;;0.70;;
65393;SDS011;52002;49.760;6.512;2023-08-08T02:07:35;1.20;;;0.70;;
65393;SDS011;52002;49.760;6.512;2023-08-08T02:10:01;1.20;;;0.60;;
65393;SDS011;52002;49.760;6.512;2023-08-08T02:12:26;0.80;;;0.50;;
65393;SDS011;52002;49.760;6.512;2023-08-08T02:14:54;0.90;;;0.60;;
65393;SDS011;52002;49.760;6.512;2023-08-08T02:17:20;3.60;;;0.60;;
65393;SDS011;52002;49.760;6.512;2023-08-08T02:19:46;1.20;;;0.70;;
65393;SDS011;52002;49.760;6.512;2023-08-08T02:22:11;1.50;;;0.90;;
65393;SDS011;52002;49.760;6.512;2023-08-08T02:24:37;6.50;;;1.10;;
65393;SDS011;52002;49.760;6.512;2023-08-08T02:27:02;5.00;;;0.90;;
65393;SDS011;52002;49.760;6.512;2023-08-08T02:29:28;0.80;;;0.80;;
65393;SDS011;52002;49.760;6.512;2023-08-08T02:31:53;2.00;;;0.60;;
65393;SDS011;52002;49.760;6.512;2023-08-08T02:34:18;4.10;;;0.70;;
65393;SDS011;52002;49.760;6.512;2023-08-08T02:36:43;3.30;;;0.60;;
65393;SDS011;52002;49.760;6.512;2023-08-08T02:39:09;1.40;;;0.80;;
65393;SDS011;52002;49.760;6.512;2023-08-08T02:41:34;2.80;;;0.80;;
65393;SDS011;52002;49.760;6.512;2023-08-08T02:44:00;1.10;;;0.80;;
65393;SDS011;52002;49.760;6.512;2023-08-08T02:46:25;2.70;;;0.90;;
65393;SDS011;52002;49.760;6.512;2023-08-08T02:48:50;0.70;;;0.60;;
65393;SDS011;52002;49.760;6.512;2023-08-08T02:51:16;2.80;;;0.70;;
65393;SDS011;52002;49.760;6.512;2023-08-08T02:53:41;0.50;;;0.50;;
65393;SDS011;52002;49.760;6.512;2023-08-08T02:56:06;4.10;;;0.60;;
65393;SDS011;52002;49.760;6.512;2023-08-08T02:58:32;2.80;;;0.80;;
65393;SDS011;52002;49.760;6.512;2023-08-08T03:00:57;0.70;;;0.60;;
65393;SDS011;52002;49.760;6.512;2023-08-08T03:03:22;1.70;;;0.50;;
65393;SDS011;52002;49.760;6.512;2023-08-08T03:05:49;2.60;;;1.00;;
65393;SDS011;52002;49.760;6.512;2023-08-08T03:08:14;1.00;;;0.50;;
65393;SDS011;52002;49.760;6.512;2023-08-08T03:10:39;3.00;;;0.80;;
65393;SDS011;52002;49.760;6.512;2023-08-08T03:13:06;2.70;;;0.80;;
65393;SDS011;52002;49.760;6.512;2023-08-08T03:15:31;1.40;;;0.70;;
65393;SDS011;52002;49.760;6.512;2023-08-08T03:17:57;1.20;;;0.70;;
65393;SDS011;52002;49.760;6.512;2023-08-08T03:20:22;5.30;;;0.80;;
65393;SDS011;52002;49.760;6.512;2023-08-08T03:22:47;2.80;;;0.60;;
65393;SDS011;52002;49.760;6.512;2023-08-08T03:25:13;1.60;;;0.50;;
65393;SDS011;52002;49.760;6.512;2023-08-08T03:27:38;3.10;;;1.10;;
65393;SDS011;52002;49.760;6.512;2023-08-08T03:30:04;2.70;;;0.80;;
65393;SDS011;52002;49.760;6.512;2023-08-08T03:32:30;3.50;;;0.80;;
65393;SDS011;52002;49.760;6.512;2023-08-08T03:34:55;1.40;;;0.80;;
65393;SDS011;52002;49.760;6.512;2023-08-08T03:37:20;2.00;;;0.90;;
65393;SDS011;52002;49.760;6.512;2023-08-08T03:39:46;0.80;;;0.70;;
65393;SDS011;52002;49.760;6.512;2023-08-08T03:42:11;1.70;;;0.60;;
65393;SDS011;52002;49.760;6.512;2023-08-08T03:44:36;1.40;;;0.80;;
65393;SDS011;52002;49.760;6.512;2023-08-08T03:47:02;1.50;;;0.80;;
65393;SDS011;52002;49.760;6.512;2023-08-08T03:49:27;0.90;;;0.70;;
65393;SDS011;52002;49.760;6.512;2023-08-08T03:51:53;5.60;;;0.90;;
65393;SDS011;52002;49.760;6.512;2023-08-08T03:54:18;3.80;;;0.70;;
65393;SDS011;52002;49.760;6.512;2023-08-08T03:56:43;2.40;;;0.70;;
65393;SDS011;52002;49.760;6.512;2023-08-08T03:59:09;1.50;;;0.80;;
65393;SDS011;52002;49.760;6.512;2023-08-08T04:01:35;2.10;;;0.80;;
65393;SDS011;52002;49.760;6.512;2023-08-08T04:04:03;0.90;;;0.70;;
65393;SDS011;52002;49.760;6.512;2023-08-08T04:06:29;6.10;;;0.90;;
65393;SDS011;52002;49.760;6.512;2023-08-08T04:08:54;0.90;;;0.60;;
65393;SDS011;52002;49.760;6.512;2023-08-08T04:11:20;3.10;;;0.70;;
65393;SDS011;52002;49.760;6.512;2023-08-08T04:13:46;3.80;;;1.00;;
65393;SDS011;52002;49.760;6.512;2023-08-08T04:16:11;3.00;;;0.70;;
65393;SDS011;52002;49.760;6.512;2023-08-08T04:18:36;0.90;;;0.70;;
65393;SDS011;52002;49.760;6.512;2023-08-08T04:21:01;3.30;;;0.90;;
65393;SDS011;52002;49.760;6.512;2023-08-08T04:23:27;2.80;;;1.00;;
65393;SDS011;52002;49.760;6.512;2023-08-08T04:25:52;3.00;;;1.20;;
65393;SDS011;52002;49.760;6.512;2023-08-08T04:28:18;2.10;;;1.10;;
65393;SDS011;52002;49.760;6.512;2023-08-08T04:30:44;1.50;;;1.00;;
65393;SDS011;52002;49.760;6.512;2023-08-08T04:33:09;2.40;;;0.70;;
65393;SDS011;52002;49.760;6.512;2023-08-08T04:35:35;1.10;;;0.90;;
65393;SDS011;52002;49.760;6.512;2023-08-08T04:38:00;2.30;;;1.10;;
65393;SDS011;52002;49.760;6.512;2023-08-08T04:40:25;1.10;;;1.00;;
65393;SDS011;52002;49.760;6.512;2023-08-08T04:42:51;2.30;;;1.00;;
65393;SDS011;52002;49.760;6.512;2023-08-08T04:45:16;4.90;;;1.00;;
65393;SDS011;52002;49.760;6.512;2023-08-08T04:47:42;7.30;;;0.90;;
65393;SDS011;52002;49.760;6.512;2023-08-08T04:50:07;3.00;;;1.00;;
65393;SDS011;52002;49.760;6.512;2023-08-08T04:52:33;5.00;;;1.10;;
65393;SDS011;52002;49.760;6.512;2023-08-08T04:54:58;2.30;;;0.80;;
65393;SDS011;52002;49.760;6.512;2023-08-08T04:57:23;3.20;;;1.00;;
65393;SDS011;52002;49.760;6.512;2023-08-08T04:59:48;2.70;;;0.70;;
65393;SDS011;52002;49.760;6.512;2023-08-08T05:02:14;4.40;;;1.10;;
65393;SDS011;52002;49.760;6.512;2023-08-08T05:04:39;1.20;;;1.00;;
65393;SDS011;52002;49.760;6.512;2023-08-08T05:07:05;1.80;;;0.80;;
65393;SDS011;52002;49.760;6.512;2023-08-08T05:09:31;7.90;;;1.20;;
65393;SDS011;52002;49.760;6.512;2023-08-08T05:11:56;2.80;;;1.20;;
65393;SDS011;52002;49.760;6.512;2023-08-08T05:14:22;3.30;;;0.90;;
65393;SDS011;52002;49.760;6.512;2023-08-08T05:16:47;2.40;;;0.80;;
65393;SDS011;52002;49.760;6.512;2023-08-08T05:19:12;3.90;;;1.10;;
65393;SDS011;52002;49.760;6.512;2023-08-08T05:21:38;2.60;;;0.90;;
65393;SDS011;52002;49.760;6.512;2023-08-08T05:24:04;1.80;;;0.90;;
65393;SDS011;52002;49.760;6.512;2023-08-08T05:26:29;0.90;;;0.80;;
65393;SDS011;52002;49.760;6.512;2023-08-08T05:28:55;2.60;;;1.20;;
65393;SDS011;52002;49.760;6.512;2023-08-08T05:31:20;2.10;;;1.10;;
65393;SDS011;52002;49.760;6.512;2023-08-08T05:33:45;6.00;;;0.80;;
65393;SDS011;52002;49.760;6.512;2023-08-08T05:36:13;5.10;;;1.60;;
65393;SDS011;52002;49.760;6.512;2023-08-08T05:38:38;1.80;;;1.00;;
65393;SDS011;52002;49.760;6.512;2023-08-08T05:41:03;2.30;;;1.10;;
65393;SDS011;52002;49.760;6.512;2023-08-08T05:43:28;1.70;;;1.00;;
65393;SDS011;52002;49.760;6.512;2023-08-08T05:45:54;3.10;;;1.10;;
65393;SDS011;52002;49.760;6.512;2023-08-08T05:48:19;2.50;;;0.90;;
65393;SDS011;52002;49.760;6.512;2023-08-08T05:50:44;4.30;;;1.00;;
65393;SDS011;52002;49.760;6.512;2023-08-08T05:53:10;3.70;;;1.00;;
65393;SDS011;52002;49.760;6.512;2023-08-08T05:55:35;4.50;;;1.50;;
65393;SDS011;52002;49.760;6.512;2023-08-08T05:58:00;2.90;;;1.10;;
65393;SDS011;52002;49.760;6.512;2023-08-08T06:00:26;1.90;;;1.20;;
65393;SDS011;52002;49.760;6.512;2023-08-08T06:02:51;3.80;;;1.30;;
65393;SDS011;52002;49.760;6.512;2023-08-08T06:05:17;1.70;;;1.10;;
65393;SDS011;52002;49.760;6.512;2023-08-08T06:07:42;3.50;;;1.20;;
65393;SDS011;52002;49.760;6.512;2023-08-08T06:10:08;7.70;;;1.30;;
65393;SDS011;52002;49.760;6.512;2023-08-08T06:12:34;1.90;;;1.20;;
65393;SDS011;52002;49.760;6.512;2023-08-08T06:14:59;2.20;;;1.00;;
65393;SDS011;52002;49.760;6.512;2023-08-08T06:17:24;1.30;;;1.00;;
65393;SDS011;52002;49.760;6.512;2023-08-08T06:19:50;2.00;;;1.10;;
65393;SDS011;52002;49.760;6.512;2023-08-08T06:22:15;3.30;;;1.00;;
65393;SDS011;52002;49.760;6.512;2023-08-08T06:24:41;4.30;;;1.10;;
65393;SDS011;52002;49.760;6.512;2023-08-08T06:27:06;2.80;;;0.90;;
65393;SDS011;52002;49.760;6.512;2023-08-08T06:29:32;2.90;;;1.20;;
65393;SDS011;52002;49.760;6.512;2023-08-08T06:31:57;1.50;;;1.20;;
65393;SDS011;52002;49.760;6.512;2023-08-08T06:34:23;4.50;;;1.00;;
65393;SDS011;52002;49.760;6.512;2023-08-08T06:36:48;2.00;;;1.00;;
65393;SDS011;52002;49.760;6.512;2023-08-08T06:39:13;1.30;;;1.10;;
65393;SDS011;52002;49.760;6.512;2023-08-08T06:41:40;3.90;;;1.40;;
65393;SDS011;52002;49.760;6.512;2023-08-08T06:44:06;1.40;;;0.90;;
65393;SDS011;52002;49.760;6.512;2023-08-08T06:46:32;4.40;;;1.10;;
65393;SDS011;52002;49.760;6.512;2023-08-08T06:48:58;2.80;;;1.20;;
65393;SDS011;52002;49.760;6.512;2023-08-08T06:51:24;2.70;;;1.10;;
65393;SDS011;52002;49.760;6.512;2023-08-08T06:53:50;1.60;;;1.00;;
65393;SDS011;52002;49.760;6.512;2023-08-08T06:56:16;6.10;;;1.10;;
65393;SDS011;52002;49.760;6.512;2023-08-08T06:58:41;4.80;;;1.20;;
65393;SDS011;52002;49.760;6.512;2023-08-08T07:01:06;4.70;;;1.10;;
65393;SDS011;52002;49.760;6.512;2023-08-08T07:03:32;1.70;;;1.10;;
65393;SDS011;52002;49.760;6.512;2023-08-08T07:05:57;4.10;;;1.30;;
65393;SDS011;52002;49.760;6.512;2023-08-08T07:08:22;3.50;;;1.00;;
65393;SDS011;52002;49.760;6.512;2023-08-08T07:10:48;4.20;;;1.40;;
65393;SDS011;52002;49.760;6.512;2023-08-08T07:13:14;6.60;;;1.50;;
65393;SDS011;52002;49.760;6.512;2023-08-08T07:15:40;6.30;;;1.20;;
65393;SDS011;52002;49.760;6.512;2023-08-08T07:18:06;5.70;;;1.20;;
65393;SDS011;52002;49.760;6.512;2023-08-08T07:20:31;13.50;;;1.80;;
65393;SDS011;52002;49.760;6.512;2023-08-08T07:22:56;5.70;;;1.20;;
65393;SDS011;52002;49.760;6.512;2023-08-08T07:25:22;3.00;;;1.10;;
65393;SDS011;52002;49.760;6.512;2023-08-08T07:27:47;9.90;;;1.50;;
65393;SDS011;52002;49.760;6.512;2023-08-08T07:30:13;2.30;;;1.20;;
65393;SDS011;52002;49.760;6.512;2023-08-08T07:32:38;4.30;;;1.30;;
65393;SDS011;52002;49.760;6.512;2023-08-08T07:35:04;3.10;;;1.00;;
65393;SDS011;52002;49.760;6.512;2023-08-08T07:37:31;4.90;;;1.30;;
65393;SDS011;52002;49.760;6.512;2023-08-08T07:39:57;3.70;;;1.40;;
65393;SDS011;52002;49.760;6.512;2023-08-08T07:42:23;5.90;;;1.80;;
65393;SDS011;52002;49.760;6.512;2023-08-08T07:44:48;6.90;;;1.30;;
65393;SDS011;52002;49.760;6.512;2023-08-08T07:47:13;7.10;;;1.40;;
65393;SDS011;52002;49.760;6.512;2023-08-08T07:49:39;3.50;;;1.20;;
65393;SDS011;52002;49.760;6.512;2023-08-08T07:52:04;3.30;;;1.40;;
65393;SDS011;52002;49.760;6.512;2023-08-08T07:54:30;4.50;;;1.60;;
65393;SDS011;52002;49.760;6.512;2023-08-08T07:56:55;8.00;;;1.70;;
65393;SDS011;52002;49.760;6.512;2023-08-08T07:59:21;5.50;;;1.60;;
65393;SDS011;52002;49.760;6.512;2023-08-08T08:01:46;4.20;;;1.20;;
65393;SDS011;52002;49.760;6.512;2023-08-08T08:04:12;6.60;;;1.40;;
65393;SDS011;52002;49.760;6.512;2023-08-08T08:06:37;5.30;;;1.60;;
65393;SDS011;52002;49.760;6.512;2023-08-08T08:09:02;6.00;;;1.70;;
65393;SDS011;52002;49.760;6.512;2023-08-08T08:11:28;4.80;;;1.30;;
65393;SDS011;52002;49.760;6.512;2023-08-08T08:13:54;5.90;;;1.40;;
65393;SDS011;52002;49.760;6.512;2023-08-08T08:16:19;4.90;;;1.50;;
65393;SDS011;52002;49.760;6.512;2023-08-08T08:18:45;3.60;;;1.50;;
65393;SDS011;52002;49.760;6.512;2023-08-08T08:21:12;6.20;;;1.50;;
65393;SDS011;52002;49.760;6.512;2023-08-08T08:23:38;5.00;;;1.20;;
65393;SDS011;52002;49.760;6.512;2023-08-08T08:26:04;5.40;;;1.40;;
65393;SDS011;52002;49.760;6.512;2023-08-08T08:28:29;4.80;;;1.40;;
65393;SDS011;52002;49.760;6.512;2023-08-08T08:30:55;3.70;;;1.20;;
65393;SDS011;52002;49.760;6.512;2023-08-08T08:33:20;3.60;;;1.40;;
65393;SDS011;52002;49.760;6.512;2023-08-08T08:35:45;6.20;;;1.60;;
65393;SDS011;52002;49.760;6.512;2023-08-08T08:38:11;5.00;;;1.30;;
65393;SDS011;52002;49.760;6.512;2023-08-08T08:40:37;3.60;;;1.30;;
65393;SDS011;52002;49.760;6.512;2023-08-08T08:43:04;4.00;;;1.70;;
65393;SDS011;52002;49.760;6.512;2023-08-08T08:45:32;7.50;;;1.50;;
65393;SDS011;52002;49.760;6.512;2023-08-08T08:48:02;8.50;;;1.20;;
65393;SDS011;52002;49.760;6.512;2023-08-08T08:50:28;5.70;;;1.40;;
65393;SDS011;52002;49.760;6.512;2023-08-08T08:52:58;8.20;;;1.60;;
65393;SDS011;52002;49.760;6.512;2023-08-08T08:55:25;5.70;;;1.60;;
65393;SDS011;52002;49.760;6.512;2023-08-08T08:57:51;6.10;;;1.40;;
65393;SDS011;52002;49.760;6.512;2023-08-08T09:00:18;4.40;;;1.20;;
65393;SDS011;52002;49.760;6.512;2023-08-08T09:02:43;4.60;;;1.20;;
65393;SDS011;52002;49.760;6.512;2023-08-08T09:05:09;5.60;;;1.40;;
65393;SDS011;52002;49.760;6.512;2023-08-08T09:07:36;2.60;;;1.30;;
65393;SDS011;52002;49.760;6.512;2023-08-08T09:10:02;6.40;;;1.60;;
65393;SDS011;52002;49.760;6.512;2023-08-08T09:12:28;8.30;;;1.50;;
65393;SDS011;52002;49.760;6.512;2023-08-08T09:14:56;6.20;;;1.30;;
65393;SDS011;52002;49.760;6.512;2023-08-08T09:17:24;3.70;;;1.20;;
65393;SDS011;52002;49.760;6.512;2023-08-08T09:19:52;2.40;;;1.00;;
65393;SDS011;52002;49.760;6.512;2023-08-08T09:22:19;2.90;;;1.20;;
65393;SDS011;52002;49.760;6.512;2023-08-08T09:24:45;2.60;;;1.00;;
65393;SDS011;52002;49.760;6.512;2023-08-08T09:27:11;4.20;;;1.20;;
65393;SDS011;52002;49.760;6.512;2023-08-08T09:29:38;4.00;;;1.10;;
65393;SDS011;52002;49.760;6.512;2023-08-08T09:32:04;3.50;;;1.00;;
65393;SDS011;52002;49.760;6.512;2023-08-08T09:34:31;3.10;;;1.30;;
65393;SDS011;52002;49.760;6.512;2023-08-08T09:36:57;2.90;;;1.20;;
65393;SDS011;52002;49.760;6.512;2023-08-08T09:39:23;2.50;;;1.10;;
65393;SDS011;52002;49.760;6.512;2023-08-08T09:41:49;4.30;;;1.20;;
65393;SDS011;52002;49.760;6.512;2023-08-08T09:44:14;2.80;;;1.20;;
65393;SDS011;52002;49.760;6.512;2023-08-08T09:46:40;5.50;;;1.10;;
65393;SDS011;52002;49.760;6.512;2023-08-08T09:49:06;5.30;;;1.10;;
65393;SDS011;52002;49.760;6.512;2023-08-08T09:51:31;3.30;;;1.30;;
65393;SDS011;52002;49.760;6.512;2023-08-08T09:53:58;3.70;;;1.20;;
65393;SDS011;52002;49.760;6.512;2023-08-08T09:56:25;4.20;;;1.20;;
65393;SDS011;52002;49.760;6.512;2023-08-08T09:58:52;6.10;;;1.30;;
65393;SDS011;52002;49.760;6.512;2023-08-08T10:01:18;2.50;;;1.20;;
65393;SDS011;52002;49.760;6.512;2023-08-08T10:03:45;1.70;;;0.70;;
65393;SDS011;52002;49.760;6.512;2023-08-08T10:06:10;4.30;;;1.30;;
65393;SDS011;52002;49.760;6.512;2023-08-08T10:08:36;4.50;;;1.50;;
65393;SDS011;52002;49.760;6.512;2023-08-08T10:11:02;1.40;;;1.10;;
65393;SDS011;52002;49.760;6.512;2023-08-08T10:13:30;4.60;;;1.20;;
65393;SDS011;52002;49.760;6.512;2023-08-08T10:15:55;5.00;;;1.30;;
65393;SDS011;52002;49.760;6.512;2023-08-08T10:18:21;3.40;;;1.10;;
65393;SDS011;52002;49.760;6.512;2023-08-08T10:20:48;3.20;;;1.20;;
65393;SDS011;52002;49.760;6.512;2023-08-08T10:23:15;4.30;;;1.10;;
65393;SDS011;52002;49.760;6.512;2023-08-08T10:25:45;3.60;;;1.10;;
65393;SDS011;52002;49.760;6.512;2023-08-08T10:28:17;3.40;;;1.00;;
65393;SDS011;52002;49.760;6.512;2023-08-08T10:36:06;4.30;;;1.00;;
65393;SDS011;52002;49.760;6.512;2023-08-08T10:38:42;2.30;;;0.90;;
65393;SDS011;52002;49.760;6.512;2023-08-08T10:41:12;3.20;;;1.10;;
65393;SDS011;52002;49.760;6.512;2023-08-08T10:43:46;4.90;;;1.00;;
65393;SDS011;52002;49.760;6.512;2023-08-08T10:46:14;2.80;;;0.90;;
65393;SDS011;52002;49.760;6.512;2023-08-08T10:48:51;4.20;;;1.10;;
65393;SDS011;52002;49.760;6.512;2023-08-08T10:51:17;5.70;;;1.00;;
65393;SDS011;52002;49.760;6.512;2023-08-08T10:53:43;3.50;;;1.10;;
65393;SDS011;52002;49.760;6.512;2023-08-08T10:56:12;2.80;;;1.00;;
65393;SDS011;52002;49.760;6.512;2023-08-08T10:58:39;3.20;;;0.80;;
65393;SDS011;52002;49.760;6.512;2023-08-08T11:01:05;3.70;;;0.90;;
65393;SDS011;52002;49.760;6.512;2023-08-08T11:03:36;5.10;;;1.10;;
65393;SDS011;52002;49.760;6.512;2023-08-08T11:06:02;3.10;;;1.00;;
65393;SDS011;52002;49.760;6.512;2023-08-08T11:08:31;3.60;;;1.00;;
65393;SDS011;52002;49.760;6.512;2023-08-08T11:10:58;6.20;;;1.00;;
65393;SDS011;52002;49.760;6.512;2023-08-08T11:13:24;3.10;;;1.20;;
65393;SDS011;52002;49.760;6.512;2023-08-08T11:15:50;4.80;;;1.40;;
65393;SDS011;52002;49.760;6.512;2023-08-08T11:18:16;7.60;;;0.70;;
65393;SDS011;52002;49.760;6.512;2023-08-08T11:20:41;1.30;;;0.60;;
65393;SDS011;52002;49.760;6.512;2023-08-08T11:23:07;6.00;;;1.20;;
65393;SDS011;52002;49.760;6.512;2023-08-08T11:25:35;2.20;;;0.90;;
65393;SDS011;52002;49.760;6.512;2023-08-08T11:28:02;3.90;;;1.30;;
65393;SDS011;52002;49.760;6.512;2023-08-08T11:30:29;5.80;;;1.10;;
65393;SDS011;52002;49.760;6.512;2023-08-08T11:32:57;5.70;;;1.30;;
65393;SDS011;52002;49.760;6.512;2023-08-08T11:35:23;4.60;;;1.30;;
65393;SDS011;52002;49.760;6.512;2023-08-08T11:37:54;3.20;;;1.20;;
65393;SDS011;52002;49.760;6.512;2023-08-08T11:40:23;2.80;;;1.00;;
65393;SDS011;52002;49.760;6.512;2023-08-08T11:42:51;2.20;;;0.90;;
65393;SDS011;52002;49.760;6.512;2023-08-08T11:45:18;4.90;;;1.10;;
65393;SDS011;52002;49.760;6.512;2023-08-08T11:47:47;4.00;;;1.10;;
65393;SDS011;52002;49.760;6.512;2023-08-08T11:50:18;3.40;;;1.20;;
65393;SDS011;52002;49.760;6.512;2023-08-08T11:52:45;4.30;;;0.90;;
65393;SDS011;52002;49.760;6.512;2023-08-08T11:55:12;6.10;;;1.30;;
65393;SDS011;52002;49.760;6.512;2023-08-08T11:57:38;2.70;;;1.00;;
65393;SDS011;52002;49.760;6.512;2023-08-08T12:00:05;1.90;;;1.00;;
65393;SDS011;52002;49.760;6.512;2023-08-08T12:02:33;3.20;;;0.90;;
65393;SDS011;52002;49.760;6.512;2023-08-08T12:05:05;4.00;;;1.10;;
65393;SDS011;52002;49.760;6.512;2023-08-08T12:07:35;6.70;;;1.30;;
65393;SDS011;52002;49.760;6.512;2023-08-08T12:10:03;3.80;;;1.00;;
65393;SDS011;52002;49.760;6.512;2023-08-08T12:12:31;4.20;;;1.10;;
65393;SDS011;52002;49.760;6.512;2023-08-08T12:15:02;3.70;;;1.00;;
65393;SDS011;52002;49.760;6.512;2023-08-08T12:17:30;3.20;;;1.00;;
65393;SDS011;52002;49.760;6.512;2023-08-08T12:19:58;4.10;;;1.00;;
65393;SDS011;52002;49.760;6.512;2023-08-08T12:22:24;1.60;;;0.80;;
65393;SDS011;52002;49.760;6.512;2023-08-08T12:24:50;1.40;;;0.80;;
65393;SDS011;52002;49.760;6.512;2023-08-08T12:27:15;3.40;;;1.00;;
65393;SDS011;52002;49.760;6.512;2023-08-08T12:29:41;4.70;;;1.20;;
65393;SDS011;52002;49.760;6.512;2023-08-08T12:32:06;2.90;;;1.10;;
65393;SDS011;52002;49.760;6.512;2023-08-08T12:34:33;9.90;;;1.00;;
65393;SDS011;52002;49.760;6.512;2023-08-08T12:36:59;7.40;;;1.60;;
65393;SDS011;52002;49.760;6.512;2023-08-08T12:39:25;5.00;;;1.00;;
65393;SDS011;52002;49.760;6.512;2023-08-08T12:41:50;4.40;;;1.00;;
65393;SDS011;52002;49.760;6.512;2023-08-08T12:44:16;3.10;;;1.10;;
65393;SDS011;52002;49.760;6.512;2023-08-08T12:46:41;2.10;;;1.00;;
65393;SDS011;52002;49.760;6.512;2023-08-08T12:49:06;4.20;;;1.00;;
65393;SDS011;52002;49.760;6.512;2023-08-08T12:51:32;6.60;;;1.50;;
65393;SDS011;52002;49.760;6.512;2023-08-08T12:53:58;4.10;;;1.30;;
65393;SDS011;52002;49.760;6.512;2023-08-08T12:56:23;3.80;;;1.40;;
65393;SDS011;52002;49.760;6.512;2023-08-08T12:58:49;7.10;;;1.10;;
65393;SDS011;52002;49.760;6.512;2023-08-08T13:01:15;4.70;;;1.30;;
65393;SDS011;52002;49.760;6.512;2023-08-08T13:03:40;7.40;;;1.50;;
65393;SDS011;52002;49.760;6.512;2023-08-08T13:06:05;4.90;;;1.20;;
65393;SDS011;52002;49.760;6.512;2023-08-08T13:08:31;5.70;;;1.00;;
65393;SDS011;52002;49.760;6.512;2023-08-08T13:10:57;7.20;;;1.40;;
65393;SDS011;52002;49.760;6.512;2023-08-08T13:13:24;2.70;;;1.30;;
65393;SDS011;52002;49.760;6.512;2023-08-08T13:15:50;3.60;;;1.00;;
65393;SDS011;52002;49.760;6.512;2023-08-08T13:18:15;6.70;;;1.10;;
65393;SDS011;52002;49.760;6.512;2023-08-08T13:20:40;5.70;;;1.10;;
65393;SDS011;52002;49.760;6.512;2023-08-08T13:23:06;5.10;;;1.50;;
65393;SDS011;52002;49.760;6.512;2023-08-08T13:25:31;5.80;;;1.20;;
65393;SDS011;52002;49.760;6.512;2023-08-08T13:27:59;5.30;;;1.40;;
65393;SDS011;52002;49.760;6.512;2023-08-08T13:30:26;6.50;;;1.40;;
65393;SDS011;52002;49.760;6.512;2023-08-08T13:32:51;2.50;;;1.00;;
65393;SDS011;52002;49.760;6.512;2023-08-08T13:35:16;1.40;;;1.00;;
65393;SDS011;52002;49.760;6.512;2023-08-08T13:37:42;5.20;;;1.30;;
65393;SDS011;52002;49.760;6.512;2023-08-08T13:40:07;6.10;;;1.20;;
65393;SDS011;52002;49.760;6.512;2023-08-08T13:42:32;8.20;;;1.70;;
65393;SDS011;52002;49.760;6.512;2023-08-08T13:44:58;6.30;;;1.60;;
65393;SDS011;52002;49.760;6.512;2023-08-08T13:47:24;3.50;;;1.10;;
65393;SDS011;52002;49.760;6.512;2023-08-08T13:49:49;3.80;;;1.50;;
65393;SDS011;52002;49.760;6.512;2023-08-08T13:52:14;3.10;;;1.20;;
65393;SDS011;52002;49.760;6.512;2023-08-08T13:54:39;3.70;;;1.60;;
65393;SDS011;52002;49.760;6.512;2023-08-08T13:57:05;3.30;;;1.10;;
65393;SDS011;52002;49.760;6.512;2023-08-08T13:59:30;4.10;;;1.30;;
65393;SDS011;52002;49.760;6.512;2023-08-08T14:01:55;5.20;;;1.90;;
65393;SDS011;52002;49.760;6.512;2023-08-08T14:04:21;4.30;;;1.40;;
65393;SDS011;52002;49.760;6.512;2023-08-08T14:06:46;3.50;;;0.80;;
65393;SDS011;52002;49.760;6.512;2023-08-08T14:09:11;4.50;;;1.60;;
65393;SDS011;52002;49.760;6.512;2023-08-08T14:11:37;2.80;;;1.10;;
65393;SDS011;52002;49.760;6.512;2023-08-08T14:14:02;4.50;;;1.70;;
65393;SDS011;52002;49.760;6.512;2023-08-08T14:16:28;4.80;;;1.30;;
65393;SDS011;52002;49.760;6.512;2023-08-08T14:18:53;7.00;;;1.30;;
65393;SDS011;52002;49.760;6.512;2023-08-08T14:21:18;2.40;;;1.10;;
65393;SDS011;52002;49.760;6.512;2023-08-08T14:23:44;4.90;;;1.40;;
65393;SDS011;52002;49.760;6.512;2023-08-08T14:26:10;5.00;;;1.30;;
65393;SDS011;52002;49.760;6.512;2023-08-08T14:28:36;5.50;;;1.20;;
65393;SDS011;52002;49.760;6.512;2023-08-08T14:31:01;4.70;;;1.60;;
65393;SDS011;52002;49.760;6.512;2023-08-08T14:33:27;5.90;;;1.70;;
65393;SDS011;52002;49.760;6.512;2023-08-08T14:35:53;9.70;;;1.50;;
65393;SDS011;52002;49.760;6.512;2023-08-08T14:38:18;2.00;;;1.20;;
65393;SDS011;52002;49.760;6.512;2023-08-08T14:40:43;6.50;;;1.40;;
65393;SDS011;52002;49.760;6.512;2023-08-08T14:43:09;4.50;;;1.60;;
65393;SDS011;52002;49.760;6.512;2023-08-08T14:45:37;3.60;;;1.40;;
65393;SDS011;52002;49.760;6.512;2023-08-08T14:48:06;3.20;;;1.40;;